createdAt,value
2024-04-12T00:02:31.902Z,9.80
2024-04-12T00:05:21.905Z,9.70
2024-04-12T00:08:09.342Z,9.60
2024-04-12T00:11:09.270Z,9.50
2024-04-12T00:13:56.892Z,9.40
2024-04-12T00:16:54.174Z,9.50
2024-04-12T00:19:41.681Z,9.50
2024-04-12T00:22:31.562Z,9.60
2024-04-12T00:25:18.964Z,9.60
2024-04-12T00:28:07.050Z,9.60
2024-04-12T00:31:00.861Z,9.50
2024-04-12T00:33:50.279Z,9.50
2024-04-12T00:36:37.315Z,9.50
2024-04-12T00:39:37.045Z,9.50
2024-04-12T00:42:29.921Z,9.40
2024-04-12T00:45:27.939Z,9.40
2024-04-12T00:48:19.383Z,9.30
2024-04-12T00:51:06.439Z,9.20
2024-04-12T00:53:58.413Z,9.10
2024-04-12T00:56:48.502Z,9.00
2024-04-12T00:59:36.501Z,9.00
2024-04-12T01:02:23.915Z,8.90
2024-04-12T01:05:15.822Z,8.80
2024-04-12T01:08:03.120Z,8.80
2024-04-12T01:10:50.797Z,8.70
2024-04-12T01:13:38.045Z,8.70
2024-04-12T01:16:25.024Z,8.70
2024-04-12T01:19:13.762Z,8.60
2024-04-12T01:22:01.548Z,8.60
2024-04-12T01:24:48.466Z,8.60
2024-04-12T01:27:39.581Z,8.60
2024-04-12T01:30:26.691Z,8.60
2024-04-12T01:33:14.678Z,8.50
2024-04-12T01:36:12.324Z,8.50
2024-04-12T01:38:59.447Z,8.50
2024-04-12T01:41:46.537Z,8.50
2024-04-12T01:44:33.537Z,8.60
2024-04-12T01:47:21.477Z,8.60
2024-04-12T01:50:08.487Z,8.70
2024-04-12T01:52:56.415Z,8.70
2024-04-12T01:55:47.251Z,8.80
2024-04-12T01:58:35.574Z,8.80
2024-04-12T02:01:27.354Z,8.70
2024-04-12T02:04:22.415Z,8.70
2024-04-12T02:07:13.141Z,8.50
2024-04-12T02:10:09.204Z,8.40
2024-04-12T02:12:56.408Z,8.30
2024-04-12T02:15:43.331Z,8.30
2024-04-12T02:18:34.960Z,8.30
2024-04-12T02:21:23.165Z,8.30
2024-04-12T02:24:10.486Z,8.40
2024-04-12T02:26:58.388Z,8.50
2024-04-12T02:29:45.380Z,8.50
2024-04-12T02:32:32.377Z,8.50
2024-04-12T02:35:22.984Z,8.50
2024-04-12T02:38:21.597Z,8.40
2024-04-12T02:41:15.725Z,8.40
2024-04-12T02:44:05.408Z,8.30
2024-04-12T02:46:52.399Z,8.30
2024-04-12T02:49:41.496Z,8.20
2024-04-12T02:52:28.488Z,8.20
2024-04-12T02:55:15.425Z,8.20
2024-04-12T02:58:02.369Z,8.10
2024-04-12T03:00:49.360Z,8.10
2024-04-12T03:03:43.006Z,8.10
2024-04-12T03:06:34.701Z,8.10
2024-04-12T03:09:21.937Z,8.10
2024-04-12T03:12:13.827Z,8.00
2024-04-12T03:15:05.549Z,8.00
2024-04-12T03:17:53.529Z,7.90
2024-04-12T03:20:41.290Z,7.80
2024-04-12T03:23:29.760Z,7.80
2024-04-12T03:26:20.075Z,7.70
2024-04-12T03:29:07.589Z,7.70
2024-04-12T03:31:54.693Z,7.70
2024-04-12T03:34:41.676Z,7.70
2024-04-12T03:37:51.557Z,7.70
2024-04-12T03:40:39.692Z,7.60
2024-04-12T03:43:28.749Z,7.70
2024-04-12T03:46:16.007Z,7.60
2024-04-12T03:49:04.477Z,7.60
2024-04-12T03:51:55.785Z,7.60
2024-04-12T03:54:43.636Z,7.50
2024-04-12T03:57:30.516Z,7.60
2024-04-12T04:00:17.977Z,7.60
2024-04-12T04:03:10.704Z,7.60
2024-04-12T04:06:07.464Z,7.60
2024-04-12T04:08:55.270Z,7.70
2024-04-12T04:11:44.748Z,7.60
2024-04-12T04:14:34.115Z,7.60
2024-04-12T04:17:32.159Z,7.60
2024-04-12T04:20:20.408Z,7.50
2024-04-12T04:23:07.444Z,7.50
2024-04-12T04:25:56.688Z,7.50
2024-04-12T04:28:44.694Z,7.50
2024-04-12T04:31:44.541Z,7.50
2024-04-12T04:34:31.567Z,7.50
2024-04-12T04:37:23.421Z,7.50
2024-04-12T04:40:20.712Z,7.50
2024-04-12T04:43:09.766Z,7.50
2024-04-12T04:46:00.532Z,7.50
2024-04-12T04:48:47.628Z,7.50
2024-04-12T04:51:37.267Z,7.50
2024-04-12T04:54:24.428Z,7.50
2024-04-12T04:57:11.750Z,7.40
2024-04-12T05:00:07.930Z,7.40
2024-04-12T05:02:56.772Z,7.40
2024-04-12T05:05:44.160Z,7.40
2024-04-12T05:08:36.866Z,7.20
2024-04-12T05:11:30.470Z,7.40
2024-04-12T05:14:36.698Z,7.40
2024-04-12T05:17:23.846Z,7.40
2024-04-12T05:20:20.637Z,7.40
2024-04-12T05:23:19.660Z,7.40
2024-04-12T05:26:08.190Z,7.40
2024-04-12T05:28:57.756Z,7.30
2024-04-12T05:31:46.242Z,7.40
2024-04-12T05:34:36.115Z,7.50
2024-04-12T05:37:23.083Z,7.60
2024-04-12T05:40:14.233Z,7.60
2024-04-12T05:43:01.413Z,7.70
2024-04-12T05:45:51.051Z,7.70
2024-04-12T05:48:38.602Z,7.70
2024-04-12T05:51:26.257Z,7.80
2024-04-12T05:54:16.847Z,7.90
2024-04-12T05:57:05.022Z,7.90
2024-04-12T05:59:55.626Z,8.00
2024-04-12T06:02:45.332Z,8.00
2024-04-12T06:05:34.934Z,8.10
2024-04-12T06:08:23.774Z,8.20
2024-04-12T06:11:10.841Z,8.20
2024-04-12T06:14:03.143Z,8.30
2024-04-12T06:16:57.857Z,8.30
2024-04-12T06:19:44.909Z,8.30
2024-04-12T06:22:32.867Z,8.40
2024-04-12T06:25:22.544Z,8.40
2024-04-12T06:28:13.476Z,8.50
2024-04-12T06:31:01.317Z,8.50
2024-04-12T06:33:51.076Z,8.50
2024-04-12T06:36:46.486Z,8.60
2024-04-12T06:39:33.522Z,8.70
2024-04-12T06:42:21.610Z,8.90
2024-04-12T06:45:12.007Z,9.10
2024-04-12T06:47:59.347Z,9.30
2024-04-12T06:50:57.138Z,9.50
2024-04-12T06:53:47.411Z,9.60
2024-04-12T06:56:35.145Z,9.80
2024-04-12T06:59:27.601Z,9.90
2024-04-12T07:02:15.682Z,10.00
2024-04-12T07:05:06.532Z,10.20
2024-04-12T07:07:54.335Z,10.30
2024-04-12T07:10:41.430Z,10.40
2024-04-12T07:13:28.654Z,10.60
2024-04-12T07:16:17.424Z,10.70
2024-04-12T07:19:10.104Z,10.80
2024-04-12T07:21:57.123Z,10.90
2024-04-12T07:24:44.094Z,11.10
2024-04-12T07:27:31.053Z,11.20
2024-04-12T07:30:21.954Z,11.30
2024-04-12T07:33:13.371Z,11.40
2024-04-12T07:36:01.099Z,11.60
2024-04-12T07:38:50.820Z,11.70
2024-04-12T07:41:45.460Z,11.70
2024-04-12T07:44:36.908Z,11.80
2024-04-12T07:47:31.107Z,11.90
2024-04-12T07:50:18.806Z,12.00
2024-04-12T07:53:33.143Z,12.10
2024-04-12T07:56:22.355Z,12.20
2024-04-12T07:59:17.494Z,12.30
2024-04-12T08:02:10.644Z,12.40
2024-04-12T08:04:58.985Z,12.50
2024-04-12T08:07:45.976Z,12.60
2024-04-12T08:10:42.827Z,12.70
2024-04-12T08:13:38.399Z,12.70
2024-04-12T08:16:25.354Z,12.80
2024-04-12T08:19:22.881Z,12.90
2024-04-12T08:22:19.505Z,13.00
2024-04-12T08:25:08.254Z,13.10
2024-04-12T08:27:56.055Z,13.20
2024-04-12T08:30:53.319Z,13.30
2024-04-12T08:33:46.873Z,13.30
2024-04-12T08:36:34.474Z,13.40
2024-04-12T08:39:27.428Z,13.50
2024-04-12T08:42:17.716Z,13.60
2024-04-12T08:45:30.644Z,13.70
2024-04-12T08:48:19.131Z,13.80
2024-04-12T08:51:10.275Z,13.80
2024-04-12T08:54:00.409Z,13.90
2024-04-12T08:56:48.445Z,14.00
2024-04-12T08:59:35.495Z,14.10
2024-04-12T09:02:24.134Z,14.10
2024-04-12T09:05:15.611Z,14.30
2024-04-12T09:08:08.103Z,14.20
2024-04-12T09:11:03.983Z,14.40
2024-04-12T09:13:53.562Z,14.50
2024-04-12T09:16:44.962Z,14.60
2024-04-12T09:19:32.778Z,14.60
2024-04-12T09:22:20.037Z,14.70
2024-04-12T09:25:16.138Z,14.80
2024-04-12T09:28:04.355Z,14.90
2024-04-12T09:31:09.735Z,15.00
2024-04-12T09:34:16.744Z,15.20
2024-04-12T09:37:26.167Z,15.20
2024-04-12T09:40:13.537Z,15.30
2024-04-12T09:43:00.752Z,15.40
2024-04-12T09:45:49.154Z,15.50
2024-04-12T09:48:55.323Z,15.60
2024-04-12T09:52:01.093Z,15.70
2024-04-12T09:55:06.797Z,15.80
2024-04-12T09:58:15.463Z,16.00
2024-04-12T10:01:24.582Z,16.10
2024-04-12T10:04:30.636Z,16.20
2024-04-12T10:07:43.402Z,16.30
2024-04-12T10:10:49.989Z,16.40
2024-04-12T10:13:57.547Z,16.50
2024-04-12T10:17:04.178Z,16.60
2024-04-12T10:20:15.005Z,16.70
2024-04-12T10:23:24.851Z,16.70
2024-04-12T10:26:30.327Z,16.80
2024-04-12T10:29:36.026Z,17.00
2024-04-12T10:32:46.146Z,17.10
2024-04-12T10:35:54.327Z,17.20
2024-04-12T10:38:46.911Z,17.40
2024-04-12T10:41:37.083Z,17.70
2024-04-12T10:44:25.657Z,17.90
2024-04-12T10:47:14.009Z,18.10
2024-04-12T10:50:03.444Z,18.20
2024-04-12T10:52:52.660Z,18.40
2024-04-12T10:55:39.863Z,18.40
2024-04-12T10:58:34.853Z,18.50
2024-04-12T11:01:25.118Z,18.60
2024-04-12T11:04:16.789Z,18.90
2024-04-12T11:07:04.135Z,19.20
2024-04-12T11:10:04.811Z,19.60
2024-04-12T11:13:07.818Z,19.90
2024-04-12T11:15:54.803Z,20.10
2024-04-12T11:19:00.376Z,20.40
2024-04-12T11:22:06.079Z,20.70
2024-04-12T11:25:22.211Z,20.80
2024-04-12T11:28:27.898Z,21.20
2024-04-12T11:31:17.909Z,22.00
2024-04-12T11:34:11.882Z,22.80
2024-04-12T11:37:07.478Z,23.40
2024-04-12T11:39:54.617Z,23.60
2024-04-12T11:42:41.630Z,23.70
2024-04-12T11:45:31.926Z,24.20
2024-04-12T11:48:19.190Z,24.70
2024-04-12T11:51:09.753Z,24.80
2024-04-12T11:53:57.018Z,25.10
2024-04-12T11:56:46.176Z,25.50
2024-04-12T11:59:34.063Z,26.20
2024-04-12T12:02:24.189Z,26.70
2024-04-12T12:05:18.756Z,26.90
2024-04-12T12:08:07.050Z,27.20
2024-04-12T12:10:54.088Z,27.60
2024-04-12T12:13:43.884Z,27.80
2024-04-12T12:16:34.435Z,28.60
2024-04-12T12:19:21.421Z,30.10
2024-04-12T12:22:11.693Z,31.80
2024-04-12T12:25:00.698Z,33.30
2024-04-12T12:27:51.199Z,34.70
2024-04-12T12:30:38.193Z,35.10
2024-04-12T12:33:25.701Z,35.20
2024-04-12T12:36:13.310Z,36.20
2024-04-12T12:39:00.503Z,36.90
2024-04-12T12:41:47.814Z,37.00
2024-04-12T12:44:35.894Z,36.30
2024-04-12T12:47:23.069Z,35.20
2024-04-12T12:50:20.453Z,34.00
2024-04-12T12:53:10.916Z,33.10
2024-04-12T12:55:57.957Z,32.50
2024-04-12T12:58:44.950Z,32.20
2024-04-12T13:01:36.133Z,31.80
2024-04-12T13:04:23.279Z,31.50
2024-04-12T13:07:11.035Z,31.20
2024-04-12T13:09:58.075Z,30.90
2024-04-12T13:12:47.346Z,30.50
2024-04-12T13:15:34.716Z,30.00
2024-04-12T13:18:25.894Z,29.50
2024-04-12T13:21:14.204Z,29.00
2024-04-12T13:24:01.548Z,28.50
2024-04-12T13:26:52.067Z,28.00
2024-04-12T13:29:39.839Z,27.60
2024-04-12T13:32:27.082Z,27.00
2024-04-12T13:35:14.154Z,26.60
2024-04-12T13:38:01.144Z,26.20
2024-04-12T13:40:50.916Z,25.90
2024-04-12T13:43:40.929Z,25.30
2024-04-12T13:46:47.347Z,24.70
2024-04-12T13:49:54.107Z,24.40
2024-04-12T13:52:41.075Z,24.40
2024-04-12T13:55:29.655Z,24.30
2024-04-12T13:58:16.877Z,24.20
2024-04-12T14:01:07.742Z,24.20
2024-04-12T14:03:58.873Z,24.10
2024-04-12T14:06:48.287Z,24.10
2024-04-12T14:09:35.344Z,24.10
2024-04-12T14:12:23.608Z,24.10
2024-04-12T14:15:10.681Z,24.00
2024-04-12T14:18:02.065Z,23.80
2024-04-12T14:20:49.191Z,23.70
2024-04-12T14:23:36.218Z,23.80
2024-04-12T14:26:26.405Z,23.80
2024-04-12T14:29:15.730Z,23.80
2024-04-12T14:32:13.320Z,23.70
2024-04-12T14:35:09.827Z,23.70
2024-04-12T14:38:00.908Z,23.70
2024-04-12T14:40:53.392Z,23.70
2024-04-12T14:43:41.458Z,23.70
2024-04-12T14:46:30.470Z,23.70
2024-04-12T14:49:17.507Z,23.60
2024-04-12T14:52:12.931Z,23.40
2024-04-12T14:55:00.070Z,23.30
2024-04-12T14:57:51.900Z,23.40
2024-04-12T15:00:39.780Z,23.30
2024-04-12T15:03:46.354Z,23.20
2024-04-12T15:06:51.865Z,23.20
2024-04-12T15:09:57.390Z,23.10
2024-04-12T15:13:02.799Z,23.10
2024-04-12T15:16:08.227Z,23.20
2024-04-12T15:19:13.672Z,23.20
2024-04-12T15:22:19.214Z,23.00
2024-04-12T15:25:24.892Z,23.00
2024-04-12T15:28:30.312Z,23.00
2024-04-12T15:31:35.997Z,23.00
2024-04-12T15:34:42.868Z,23.00
2024-04-12T15:37:48.448Z,23.00
2024-04-12T15:40:53.790Z,23.00
2024-04-12T15:43:59.274Z,23.10
2024-04-12T15:47:01.359Z,23.20
2024-04-12T15:49:52.747Z,23.30
2024-04-12T15:52:41.654Z,23.30
2024-04-12T15:55:28.652Z,23.30
2024-04-12T15:58:33.978Z,23.40
2024-04-12T16:01:39.433Z,23.40
2024-04-12T16:04:49.435Z,23.40
2024-04-12T16:07:55.079Z,23.40
2024-04-12T16:10:49.724Z,23.40
2024-04-12T16:13:36.858Z,23.40
2024-04-12T16:16:23.859Z,23.30
2024-04-12T16:19:10.851Z,23.30
2024-04-12T16:21:57.935Z,23.30
2024-04-12T16:24:45.827Z,23.20
2024-04-12T16:27:32.796Z,23.10
2024-04-12T16:30:19.968Z,23.10
2024-04-12T16:33:07.161Z,23.10
2024-04-12T16:35:54.364Z,23.00
2024-04-12T16:38:41.376Z,23.00
2024-04-12T16:41:32.991Z,22.90
2024-04-12T16:44:19.910Z,22.90
2024-04-12T16:47:07.021Z,22.80
2024-04-12T16:49:53.997Z,22.80
2024-04-12T16:52:41.954Z,22.70
2024-04-12T16:55:29.633Z,22.60
2024-04-12T16:58:16.706Z,22.60
2024-04-12T17:01:07.873Z,22.50
2024-04-12T17:03:55.693Z,22.40
2024-04-12T17:06:42.818Z,22.30
2024-04-12T17:09:29.923Z,22.20
2024-04-12T17:12:16.978Z,22.00
2024-04-12T17:15:06.013Z,21.90
2024-04-12T17:17:53.246Z,21.80
2024-04-12T17:20:41.754Z,21.70
2024-04-12T17:23:29.339Z,21.50
2024-04-12T17:26:17.015Z,21.40
2024-04-12T17:29:04.032Z,21.40
2024-04-12T17:31:52.693Z,21.20
2024-04-12T17:34:40.239Z,21.10
2024-04-12T17:37:27.136Z,21.00
2024-04-12T17:40:16.124Z,20.90
2024-04-12T17:43:03.237Z,20.80
2024-04-12T17:45:50.221Z,20.70
2024-04-12T17:48:37.430Z,20.60
2024-04-12T17:51:25.431Z,20.50
2024-04-12T17:54:12.622Z,20.30
2024-04-12T17:56:59.639Z,20.20
2024-04-12T17:59:47.484Z,20.00
2024-04-12T18:02:34.520Z,19.90
2024-04-12T18:05:21.515Z,19.80
2024-04-12T18:08:08.487Z,19.60
2024-04-12T18:11:15.330Z,19.50
2024-04-12T18:14:02.479Z,19.40
2024-04-12T18:16:49.439Z,19.30
2024-04-12T18:19:39.775Z,19.20
2024-04-12T18:22:26.981Z,19.10
2024-04-12T18:25:14.062Z,18.90
2024-04-12T18:28:01.260Z,18.80
2024-04-12T18:30:48.277Z,18.80
2024-04-12T18:33:35.464Z,18.70
2024-04-12T18:36:23.181Z,18.70
2024-04-12T18:39:28.984Z,18.60
2024-04-12T18:42:34.398Z,18.50
2024-04-12T18:45:21.462Z,18.50
2024-04-12T18:48:08.708Z,18.40
2024-04-12T18:50:55.926Z,18.30
2024-04-12T18:53:43.033Z,18.20
2024-04-12T18:56:30.409Z,18.10
2024-04-12T18:59:17.433Z,18.10
2024-04-12T19:02:04.620Z,18.00
2024-04-12T19:04:51.635Z,17.90
2024-04-12T19:07:38.661Z,17.80
2024-04-12T19:10:25.666Z,17.80
2024-04-12T19:13:12.662Z,17.70
2024-04-12T19:15:59.983Z,17.50
2024-04-12T19:18:47.024Z,17.40
2024-04-12T19:21:34.076Z,17.40
2024-04-12T19:24:21.225Z,17.30
2024-04-12T19:27:08.384Z,17.30
2024-04-12T19:29:55.792Z,17.20
2024-04-12T19:32:42.858Z,17.10
2024-04-12T19:35:29.996Z,17.00
2024-04-12T19:38:19.243Z,17.00
2024-04-12T19:41:07.411Z,16.90
2024-04-12T19:43:54.561Z,16.80
2024-04-12T19:46:41.546Z,16.70
2024-04-12T19:49:29.461Z,16.60
2024-04-12T19:52:16.492Z,16.50
2024-04-12T19:55:04.176Z,16.40
2024-04-12T19:57:51.192Z,16.40
2024-04-12T20:00:41.421Z,16.40
2024-04-12T20:03:28.681Z,16.40
2024-04-12T20:06:15.768Z,16.40
2024-04-12T20:09:03.431Z,16.30
2024-04-12T20:11:50.991Z,16.30
2024-04-12T20:14:38.034Z,16.20
2024-04-12T20:17:25.301Z,16.10
2024-04-12T20:20:18.358Z,16.00
2024-04-12T20:23:07.124Z,16.00
2024-04-12T20:26:08.344Z,16.00
2024-04-12T20:28:55.934Z,16.00
2024-04-12T20:31:53.358Z,15.90
2024-04-12T20:34:49.010Z,15.90
2024-04-12T20:37:41.099Z,15.80
2024-04-12T20:40:28.769Z,15.80
2024-04-12T20:43:15.619Z,15.70
2024-04-12T20:46:02.672Z,15.60
2024-04-12T20:48:50.918Z,15.50
2024-04-12T20:51:39.148Z,15.40
2024-04-12T20:54:26.178Z,15.30
2024-04-12T20:57:13.407Z,15.30
2024-04-12T21:00:01.148Z,15.30
2024-04-12T21:02:48.139Z,15.20
2024-04-12T21:05:35.261Z,15.20
2024-04-12T21:08:22.221Z,15.10
2024-04-12T21:11:18.175Z,15.00
2024-04-12T21:14:09.667Z,14.90
2024-04-12T21:16:57.633Z,14.80
2024-04-12T21:19:44.603Z,14.70
2024-04-12T21:22:31.606Z,14.60
2024-04-12T21:25:18.657Z,14.50
2024-04-12T21:28:05.682Z,14.50
2024-04-12T21:30:52.832Z,14.40
2024-04-12T21:33:39.918Z,14.40
2024-04-12T21:36:27.209Z,14.40
2024-04-12T21:39:14.776Z,14.30
2024-04-12T21:42:01.906Z,14.30
2024-04-12T21:44:50.418Z,14.20
2024-04-12T21:47:37.548Z,14.20
2024-04-12T21:50:24.548Z,14.10
2024-04-12T21:53:11.473Z,14.00
2024-04-12T21:56:03.369Z,13.90
2024-04-12T21:58:51.070Z,13.80
2024-04-12T22:01:38.293Z,13.70
2024-04-12T22:04:27.679Z,13.60
2024-04-12T22:07:14.940Z,13.60
2024-04-12T22:10:02.509Z,13.60
2024-04-12T22:12:49.541Z,13.60
2024-04-12T22:15:36.514Z,13.50
2024-04-12T22:18:28.688Z,13.40
2024-04-12T22:21:20.700Z,13.40
2024-04-12T22:24:08.268Z,13.30
2024-04-12T22:26:55.304Z,13.30
2024-04-12T22:29:42.266Z,13.30
2024-04-12T22:32:29.376Z,13.30
2024-04-12T22:35:16.506Z,13.30
2024-04-12T22:38:03.590Z,13.20
2024-04-12T22:40:56.569Z,13.10
2024-04-12T22:43:45.350Z,13.10
2024-04-12T22:46:34.087Z,13.10
2024-04-12T22:49:22.201Z,13.00
2024-04-12T22:52:09.245Z,13.00
2024-04-12T22:54:56.240Z,12.90
2024-04-12T22:57:44.626Z,12.90
2024-04-12T23:00:31.738Z,13.00
2024-04-12T23:03:19.383Z,12.90
2024-04-12T23:06:08.496Z,12.80
2024-04-12T23:08:55.598Z,12.80
2024-04-12T23:11:42.597Z,12.70
2024-04-12T23:14:29.628Z,12.70
2024-04-12T23:17:16.676Z,12.70
2024-04-12T23:20:04.091Z,12.60
2024-04-12T23:22:51.006Z,12.60
2024-04-12T23:25:37.994Z,12.50
2024-04-12T23:28:25.047Z,12.50
2024-04-12T23:31:12.060Z,12.40
2024-04-12T23:33:59.011Z,12.40
2024-04-12T23:36:45.977Z,12.40
2024-04-12T23:39:33.137Z,12.40
2024-04-12T23:42:20.342Z,12.30
2024-04-12T23:45:07.510Z,12.30
2024-04-12T23:47:56.122Z,12.30
2024-04-12T23:50:43.079Z,12.30
2024-04-12T23:53:30.076Z,12.30
2024-04-12T23:56:17.093Z,12.20
2024-04-12T23:59:04.126Z,12.20
